createdAt,value
2023-01-23T00:02:22.695Z,23.20
2023-01-23T00:04:50.359Z,22.85
2023-01-23T00:07:16.954Z,22.40
2023-01-23T00:09:43.624Z,22.77
2023-01-23T00:12:10.109Z,21.70
2023-01-23T00:14:36.735Z,21.38
2023-01-23T00:17:03.262Z,22.40
2023-01-23T00:19:30.718Z,22.33
2023-01-23T00:21:57.240Z,22.85
2023-01-23T00:24:23.639Z,22.83
2023-01-23T00:26:50.189Z,23.75
2023-01-23T00:29:17.036Z,22.83
2023-01-23T00:31:43.962Z,21.65
2023-01-23T00:34:10.577Z,21.70
2023-01-23T00:36:36.978Z,22.20
2023-01-23T00:39:03.316Z,23.67
2023-01-23T00:41:30.143Z,21.60
2023-01-23T00:43:57.091Z,21.77
2023-01-23T00:46:23.999Z,24.13
2023-01-23T00:48:50.492Z,22.05
2023-01-23T00:51:16.947Z,22.35
2023-01-23T00:53:43.758Z,19.25
2023-01-23T00:56:10.140Z,21.60
2023-01-23T00:58:36.536Z,20.70
2023-01-23T01:01:03.299Z,21.10
2023-01-23T01:03:30.345Z,22.15
2023-01-23T01:05:57.162Z,22.83
2023-01-23T01:08:23.552Z,20.70
2023-01-23T01:10:50.501Z,22.48
2023-01-23T01:13:16.995Z,21.60
2023-01-23T01:15:43.883Z,21.25
2023-01-23T01:18:10.688Z,22.33
2023-01-23T01:20:37.141Z,22.17
2023-01-23T01:23:03.942Z,23.98
2023-01-23T01:25:30.517Z,22.30
2023-01-23T01:27:57.359Z,21.58
2023-01-23T01:30:23.794Z,21.35
2023-01-23T01:32:50.445Z,20.92
2023-01-23T01:35:16.780Z,21.90
2023-01-23T01:37:43.709Z,23.83
2023-01-23T01:40:10.085Z,23.08
2023-01-23T01:42:36.521Z,21.63
2023-01-23T01:45:02.910Z,21.40
2023-01-23T01:47:29.718Z,23.75
2023-01-23T01:49:56.528Z,22.63
2023-01-23T01:52:23.113Z,24.70
2023-01-23T01:54:49.870Z,21.67
2023-01-23T01:57:16.287Z,21.98
2023-01-23T01:59:42.972Z,22.48
2023-01-23T02:02:09.759Z,24.08
2023-01-23T02:04:37.132Z,23.70
2023-01-23T02:07:03.549Z,22.98
2023-01-23T02:09:30.882Z,22.30
2023-01-23T02:11:57.387Z,21.77
2023-01-23T02:14:24.263Z,24.08
2023-01-23T02:16:50.766Z,19.75
2023-01-23T02:19:17.542Z,22.10
2023-01-23T02:21:44.137Z,21.23
2023-01-23T02:24:10.559Z,23.52
2023-01-23T02:26:37.059Z,23.35
2023-01-23T02:29:03.473Z,26.95
2023-01-23T02:31:29.974Z,23.42
2023-01-23T02:33:56.794Z,24.38
2023-01-23T02:36:23.429Z,26.10
2023-01-23T02:38:49.872Z,23.42
2023-01-23T02:41:16.280Z,25.50
2023-01-23T02:43:42.893Z,24.85
2023-01-23T02:46:09.325Z,24.85
2023-01-23T02:48:35.818Z,23.75
2023-01-23T02:51:02.265Z,24.08
2023-01-23T02:53:28.953Z,25.55
2023-01-23T02:55:55.725Z,25.63
2023-01-23T02:58:22.186Z,25.00
2023-01-23T03:00:48.815Z,24.75
2023-01-23T03:03:15.415Z,22.52
2023-01-23T03:05:41.926Z,26.38
2023-01-23T03:08:08.332Z,24.55
2023-01-23T03:10:34.878Z,27.48
2023-01-23T03:13:01.861Z,27.00
2023-01-23T03:15:29.265Z,25.67
2023-01-23T03:17:55.723Z,25.83
2023-01-23T03:20:22.619Z,24.98
2023-01-23T03:22:49.635Z,27.08
2023-01-23T03:25:16.351Z,25.38
2023-01-23T03:27:43.108Z,24.00
2023-01-23T03:30:10.082Z,26.17
2023-01-23T03:32:37.049Z,26.40
2023-01-23T03:35:03.623Z,26.77
2023-01-23T03:37:30.247Z,26.75
2023-01-23T03:39:57.083Z,25.25
2023-01-23T03:42:23.475Z,24.83
2023-01-23T03:44:49.864Z,24.58
2023-01-23T03:47:16.287Z,23.00
2023-01-23T03:49:42.978Z,26.10
2023-01-23T03:52:09.474Z,27.13
2023-01-23T03:54:35.935Z,28.25
2023-01-23T03:57:02.386Z,24.30
2023-01-23T03:59:29.122Z,27.00
2023-01-23T04:01:55.595Z,26.60
2023-01-23T04:04:22.179Z,27.02
2023-01-23T04:06:49.035Z,25.48
2023-01-23T04:09:15.470Z,23.38
2023-01-23T04:11:41.951Z,26.05
2023-01-23T04:14:08.483Z,27.67
2023-01-23T04:16:35.597Z,25.42
2023-01-23T04:19:02.287Z,24.67
2023-01-23T04:21:28.713Z,23.02
2023-01-23T04:23:55.246Z,24.60
2023-01-23T04:26:21.650Z,24.67
2023-01-23T04:28:48.511Z,24.92
2023-01-23T04:31:15.077Z,28.02
2023-01-23T04:33:41.889Z,27.75
2023-01-23T04:36:08.701Z,27.08
2023-01-23T04:38:35.172Z,27.25
2023-01-23T04:41:01.732Z,28.17
2023-01-23T04:43:28.166Z,23.83
2023-01-23T04:45:54.562Z,25.10
2023-01-23T04:48:21.599Z,26.92
2023-01-23T04:50:49.049Z,24.60
2023-01-23T04:53:15.472Z,27.58
2023-01-23T04:55:42.005Z,26.00
2023-01-23T04:58:08.641Z,25.15
2023-01-23T05:00:35.145Z,28.23
2023-01-23T05:03:01.672Z,26.02
2023-01-23T05:05:28.420Z,26.38
2023-01-23T05:07:55.291Z,24.98
2023-01-23T05:10:22.152Z,24.58
2023-01-23T05:12:49.192Z,29.08
2023-01-23T05:15:15.569Z,26.80
2023-01-23T05:17:42.150Z,25.58
2023-01-23T05:20:08.727Z,26.75
2023-01-23T05:22:35.685Z,27.20
2023-01-23T05:25:02.227Z,27.13
2023-01-23T05:27:28.739Z,24.95
2023-01-23T05:29:55.486Z,24.67
2023-01-23T05:32:21.918Z,26.48
2023-01-23T05:34:48.896Z,27.55
2023-01-23T05:37:15.273Z,28.85
2023-01-23T05:39:41.807Z,27.60
2023-01-23T05:42:08.473Z,26.65
2023-01-23T05:44:35.343Z,24.13
2023-01-23T05:47:01.983Z,24.45
2023-01-23T05:49:28.599Z,26.50
2023-01-23T05:51:55.491Z,25.92
2023-01-23T05:54:22.216Z,25.38
2023-01-23T05:56:48.901Z,27.08
2023-01-23T05:59:15.457Z,26.27
2023-01-23T06:01:42.788Z,25.73
2023-01-23T06:04:09.739Z,25.77
2023-01-23T06:06:36.361Z,28.67
2023-01-23T06:09:02.783Z,24.60
2023-01-23T06:11:29.469Z,27.27
2023-01-23T06:13:55.934Z,25.95
2023-01-23T06:16:22.426Z,26.35
2023-01-23T06:18:48.853Z,27.80
2023-01-23T06:21:15.344Z,25.58
2023-01-23T06:23:41.918Z,27.67
2023-01-23T06:26:08.621Z,27.27
2023-01-23T06:28:35.446Z,23.33
2023-01-23T06:31:02.423Z,27.85
2023-01-23T06:33:28.985Z,27.45
2023-01-23T06:35:55.473Z,23.95
2023-01-23T06:38:21.919Z,27.38
2023-01-23T06:40:48.305Z,24.80
2023-01-23T06:43:14.892Z,24.83
2023-01-23T06:45:41.662Z,28.20
2023-01-23T06:48:08.790Z,27.48
2023-01-23T06:50:35.258Z,25.83
2023-01-23T06:53:01.675Z,24.60
2023-01-23T06:55:28.159Z,26.17
2023-01-23T06:57:54.874Z,25.73
2023-01-23T07:00:21.684Z,25.55
2023-01-23T07:02:48.524Z,24.60
2023-01-23T07:05:15.348Z,24.13
2023-01-23T07:07:41.801Z,25.98
2023-01-23T07:10:08.357Z,28.55
2023-01-23T07:12:35.010Z,25.60
2023-01-23T07:15:01.604Z,26.38
2023-01-23T07:17:28.116Z,24.70
2023-01-23T07:19:55.166Z,28.05
2023-01-23T07:22:21.566Z,25.60
2023-01-23T07:24:47.989Z,28.90
2023-01-23T07:27:14.435Z,25.85
2023-01-23T07:29:40.772Z,25.58
2023-01-23T07:32:08.921Z,25.23
2023-01-23T07:34:37.470Z,26.65
2023-01-23T07:37:03.909Z,25.83
2023-01-23T07:39:30.757Z,24.50
2023-01-23T07:41:57.450Z,25.80
2023-01-23T07:44:23.913Z,30.15
2023-01-23T07:46:50.301Z,28.13
2023-01-23T07:49:17.072Z,27.10
2023-01-23T07:51:43.437Z,24.08
2023-01-23T07:54:10.076Z,26.33
2023-01-23T07:56:36.691Z,28.05
2023-01-23T07:59:03.373Z,27.67
2023-01-23T08:01:30.026Z,30.00
2023-01-23T08:03:56.577Z,26.33
2023-01-23T08:06:22.919Z,26.13
2023-01-23T08:08:49.606Z,26.95
2023-01-23T08:11:16.329Z,25.98
2023-01-23T08:13:42.943Z,26.55
2023-01-23T08:16:11.420Z,25.27
2023-01-23T08:18:39.180Z,27.77
2023-01-23T08:21:05.895Z,28.67
2023-01-23T08:23:32.245Z,27.10
2023-01-23T08:25:58.680Z,26.30
2023-01-23T08:28:25.590Z,28.77
2023-01-23T08:30:52.120Z,30.00
2023-01-23T08:33:18.610Z,33.08
2023-01-23T08:35:45.836Z,30.13
2023-01-23T08:38:12.415Z,33.30
2023-01-23T08:40:39.144Z,38.20
2023-01-23T08:43:05.918Z,40.70
2023-01-23T08:45:32.533Z,45.53
2023-01-23T08:47:59.306Z,51.40
2023-01-23T08:50:25.739Z,73.78
2023-01-23T08:52:52.568Z,65.15
2023-01-23T08:55:18.976Z,64.80
2023-01-23T08:57:45.481Z,71.13
2023-01-23T09:00:12.048Z,72.93
2023-01-23T09:02:38.429Z,73.00
2023-01-23T09:05:04.793Z,71.45
2023-01-23T09:07:31.707Z,72.38
2023-01-23T09:09:58.373Z,74.10
2023-01-23T09:12:24.986Z,68.50
2023-01-23T09:14:51.502Z,74.93
2023-01-23T09:17:18.142Z,70.70
2023-01-23T09:19:44.846Z,74.93
2023-01-23T09:22:11.411Z,68.97
2023-01-23T09:24:37.787Z,69.10
2023-01-23T09:27:04.489Z,68.82
2023-01-23T09:29:31.581Z,65.72
2023-01-23T09:31:58.339Z,67.82
2023-01-23T09:34:25.118Z,66.38
2023-01-23T09:36:51.761Z,68.63
2023-01-23T09:39:18.433Z,66.45
2023-01-23T09:41:45.341Z,67.28
2023-01-23T09:44:11.951Z,61.83
2023-01-23T09:46:39.332Z,62.88
2023-01-23T09:49:07.002Z,65.13
2023-01-23T09:51:33.410Z,63.63
2023-01-23T09:53:59.974Z,65.47
2023-01-23T09:56:26.384Z,60.33
2023-01-23T09:58:52.908Z,57.63
2023-01-23T10:01:19.694Z,57.33
2023-01-23T10:03:46.968Z,56.53
2023-01-23T10:06:13.586Z,61.60
2023-01-23T10:08:40.270Z,59.55
2023-01-23T10:11:06.990Z,55.75
2023-01-23T10:13:33.474Z,55.22
2023-01-23T10:16:02.216Z,57.65
2023-01-23T10:18:29.004Z,58.28
2023-01-23T10:20:55.762Z,59.33
2023-01-23T10:23:22.153Z,67.18
2023-01-23T10:25:48.600Z,70.53
2023-01-23T10:28:15.183Z,85.63
2023-01-23T10:30:42.030Z,86.05
2023-01-23T10:33:08.671Z,93.90
2023-01-23T10:35:35.251Z,122.85
2023-01-23T10:38:01.688Z,144.00
2023-01-23T10:40:28.638Z,108.32
2023-01-23T10:42:55.490Z,125.78
2023-01-23T10:45:22.115Z,153.55
2023-01-23T10:47:54.693Z,163.45
2023-01-23T10:50:21.797Z,143.93
2023-01-23T10:52:48.251Z,138.43
2023-01-23T10:55:14.965Z,136.25
2023-01-23T10:57:43.853Z,153.95
2023-01-23T11:00:10.557Z,153.00
2023-01-23T11:02:37.431Z,137.57
2023-01-23T11:05:03.909Z,148.45
2023-01-23T11:07:30.349Z,161.02
2023-01-23T11:09:56.888Z,153.05
2023-01-23T11:12:23.670Z,175.23
2023-01-23T11:14:50.102Z,175.25
2023-01-23T11:17:16.706Z,189.82
2023-01-23T11:19:43.844Z,165.50
2023-01-23T11:22:10.717Z,158.80
2023-01-23T11:24:40.774Z,179.52
2023-01-23T11:27:12.244Z,175.88
2023-01-23T11:29:38.851Z,183.05
2023-01-23T11:32:05.433Z,177.20
2023-01-23T11:34:32.271Z,174.10
2023-01-23T11:36:58.603Z,181.15
2023-01-23T11:39:25.595Z,179.05
2023-01-23T11:41:52.580Z,195.10
2023-01-23T11:44:19.320Z,194.13
2023-01-23T11:46:46.751Z,195.65
2023-01-23T11:49:13.182Z,193.60
2023-01-23T11:51:39.655Z,195.30
2023-01-23T11:54:06.179Z,187.02
2023-01-23T11:56:32.599Z,193.38
2023-01-23T11:58:59.169Z,197.55
2023-01-23T12:01:25.711Z,184.38
2023-01-23T12:03:52.252Z,201.65
2023-01-23T12:09:05.311Z,196.50
2023-01-23T12:11:31.707Z,196.95
2023-01-23T12:13:58.371Z,173.43
2023-01-23T12:16:24.882Z,179.32
2023-01-23T12:18:51.416Z,179.75
2023-01-23T12:21:17.967Z,171.70
2023-01-23T12:23:44.569Z,184.45
2023-01-23T12:26:11.271Z,171.23
2023-01-23T12:28:37.841Z,171.88
2023-01-23T12:31:05.682Z,178.40
2023-01-23T12:33:32.363Z,171.38
2023-01-23T12:35:59.097Z,172.43
2023-01-23T12:38:25.658Z,176.95
2023-01-23T12:40:52.102Z,189.15
2023-01-23T12:43:18.772Z,186.98
2023-01-23T12:45:45.218Z,176.85
2023-01-23T12:48:11.764Z,188.75
2023-01-23T12:50:38.460Z,182.82
2023-01-23T12:53:05.114Z,193.57
2023-01-23T12:55:31.860Z,184.27
2023-01-23T12:58:08.114Z,183.30
2023-01-23T13:00:35.330Z,170.98
2023-01-23T13:03:02.389Z,185.63
2023-01-23T13:05:28.999Z,168.77
2023-01-23T13:07:55.716Z,164.70
2023-01-23T13:10:22.798Z,169.48
2023-01-23T13:12:49.464Z,165.40
2023-01-23T13:15:17.225Z,160.55
2023-01-23T13:17:45.444Z,163.25
2023-01-23T13:20:11.969Z,154.15
2023-01-23T13:22:38.603Z,170.38
2023-01-23T13:25:05.605Z,149.48
2023-01-23T13:27:32.089Z,159.55
2023-01-23T13:29:58.517Z,150.63
2023-01-23T13:32:25.269Z,144.82
2023-01-23T13:34:51.785Z,161.68
2023-01-23T13:37:18.306Z,141.95
2023-01-23T13:39:45.543Z,147.25
2023-01-23T13:42:12.118Z,136.95
2023-01-23T13:44:42.059Z,137.43
2023-01-23T14:21:57.708Z,115.50
2023-01-23T14:24:24.530Z,113.90
2023-01-23T14:26:51.104Z,114.60
2023-01-23T14:29:17.799Z,108.10
2023-01-23T14:31:44.801Z,112.47
2023-01-23T14:34:13.281Z,108.13
2023-01-23T14:36:43.182Z,109.65
2023-01-23T14:39:09.658Z,107.80
2023-01-23T14:41:38.228Z,102.78
2023-01-23T14:44:07.664Z,103.32
2023-01-23T14:46:34.115Z,99.95
2023-01-23T14:49:00.761Z,100.78
2023-01-23T14:51:27.181Z,97.30
2023-01-23T14:53:53.729Z,97.60
2023-01-23T14:56:20.142Z,99.03
2023-01-23T14:58:46.986Z,98.63
2023-01-23T15:01:13.668Z,103.32
2023-01-23T15:03:40.048Z,106.90
2023-01-23T15:06:06.539Z,112.18
2023-01-23T15:08:33.259Z,106.18
2023-01-23T15:10:59.789Z,104.35
2023-01-23T15:13:26.136Z,105.50
2023-01-23T15:15:52.862Z,104.30
2023-01-23T15:18:19.383Z,99.53
2023-01-23T15:20:46.118Z,95.15
2023-01-23T15:23:12.570Z,104.43
2023-01-23T15:25:39.278Z,94.70
2023-01-23T15:28:05.639Z,93.13
2023-01-23T15:30:32.137Z,93.15
2023-01-23T15:32:58.534Z,88.60
2023-01-23T15:35:25.008Z,90.85
2023-01-23T15:37:51.446Z,99.07
2023-01-23T15:40:17.952Z,89.93
2023-01-23T15:42:44.446Z,88.40
2023-01-23T15:45:10.936Z,96.13
2023-01-23T15:47:37.345Z,87.70
2023-01-23T15:50:03.928Z,89.72
2023-01-23T15:52:30.513Z,82.20
2023-01-23T15:54:57.341Z,81.75
2023-01-23T15:57:24.075Z,82.38
2023-01-23T15:59:50.726Z,85.40
2023-01-23T16:02:29.610Z,80.97
2023-01-23T16:04:57.204Z,84.03
2023-01-23T16:07:23.575Z,87.22
2023-01-23T16:09:50.267Z,81.05
2023-01-23T16:12:16.665Z,80.82
2023-01-23T16:14:43.212Z,80.93
2023-01-23T16:17:16.766Z,77.40
2023-01-23T16:19:43.486Z,69.40
2023-01-23T16:22:09.943Z,74.75
2023-01-23T16:24:36.743Z,72.95
2023-01-23T16:27:03.282Z,74.75
2023-01-23T16:29:30.288Z,76.28
2023-01-23T16:31:56.939Z,70.15
2023-01-23T16:34:23.726Z,73.20
2023-01-23T16:36:50.152Z,74.28
2023-01-23T16:39:16.721Z,69.28
2023-01-23T16:41:43.424Z,74.03
2023-01-23T16:44:09.895Z,67.78
2023-01-23T16:46:36.537Z,73.32
2023-01-23T16:49:03.164Z,71.68
2023-01-23T16:51:29.531Z,70.85
2023-01-23T16:53:55.990Z,71.00
2023-01-23T16:56:22.761Z,67.78
2023-01-23T16:58:49.240Z,68.60
2023-01-23T17:01:16.093Z,65.38
2023-01-23T17:03:42.667Z,66.32
2023-01-23T17:06:09.776Z,62.10
2023-01-23T17:08:36.232Z,66.32
2023-01-23T17:11:02.983Z,66.13
2023-01-23T17:13:29.438Z,63.95
2023-01-23T17:15:56.199Z,65.53
2023-01-23T17:18:22.690Z,66.28
2023-01-23T17:20:49.103Z,63.40
2023-01-23T17:23:15.577Z,55.95
2023-01-23T17:25:54.462Z,61.22
2023-01-23T17:28:25.975Z,60.58
2023-01-23T17:30:52.484Z,54.33
2023-01-23T17:33:18.810Z,57.53
2023-01-23T17:35:45.558Z,59.60
2023-01-23T17:38:11.980Z,58.80
2023-01-23T17:40:38.426Z,57.67
2023-01-23T17:43:05.338Z,58.58
2023-01-23T17:45:32.313Z,56.60
2023-01-23T17:47:59.447Z,54.53
2023-01-23T17:50:26.092Z,54.70
2023-01-23T17:52:52.841Z,53.58
2023-01-23T17:55:19.297Z,52.90
2023-01-23T17:57:46.094Z,54.72
2023-01-23T18:00:12.574Z,54.15
2023-01-23T18:02:39.237Z,53.17
2023-01-23T18:05:06.184Z,51.35
2023-01-23T18:07:35.989Z,52.67
2023-01-23T18:10:06.628Z,51.30
2023-01-23T18:12:33.227Z,51.92
2023-01-23T18:15:00.062Z,52.45
2023-01-23T18:17:26.574Z,50.42
2023-01-23T18:19:53.261Z,49.05
2023-01-23T18:22:19.903Z,55.88
2023-01-23T18:24:46.591Z,48.95
2023-01-23T18:27:13.177Z,45.03
2023-01-23T18:29:39.506Z,48.13
2023-01-23T18:32:06.008Z,48.38
2023-01-23T18:34:32.478Z,46.47
2023-01-23T18:36:59.066Z,46.92
2023-01-23T18:39:25.735Z,44.90
2023-01-23T18:41:52.071Z,47.70
2023-01-23T18:44:18.573Z,48.50
2023-01-23T18:46:45.248Z,46.78
2023-01-23T18:49:14.958Z,46.80
2023-01-23T18:51:43.943Z,41.63
2023-01-23T18:54:10.540Z,44.65
2023-01-23T18:56:36.993Z,43.20
2023-01-23T18:59:11.524Z,48.15
2023-01-23T19:01:39.084Z,45.45
2023-01-23T19:04:05.536Z,43.08
2023-01-23T19:06:33.259Z,41.25
2023-01-23T19:08:59.910Z,42.85
2023-01-23T19:11:26.366Z,41.28
2023-01-23T19:13:53.033Z,42.33
2023-01-23T19:16:19.400Z,43.20
2023-01-23T19:18:46.137Z,40.58
2023-01-23T19:21:12.613Z,41.35
2023-01-23T19:23:39.535Z,39.67
2023-01-23T19:26:06.190Z,41.30
2023-01-23T19:28:32.791Z,39.25
2023-01-23T19:30:59.402Z,39.38
2023-01-23T19:33:26.326Z,39.70
2023-01-23T19:35:53.047Z,41.97
2023-01-23T19:38:20.342Z,42.33
2023-01-23T19:40:47.868Z,39.70
2023-01-23T19:43:15.188Z,35.72
2023-01-23T19:45:41.647Z,37.83
2023-01-23T19:48:08.342Z,40.20
2023-01-23T19:50:35.468Z,35.25
2023-01-23T19:53:02.311Z,37.70
2023-01-23T19:55:28.676Z,38.92
2023-01-23T19:57:55.853Z,36.63
2023-01-23T20:00:22.551Z,35.75
2023-01-23T20:02:49.486Z,39.15
2023-01-23T20:05:16.511Z,38.17
2023-01-23T20:07:43.144Z,34.03
2023-01-23T20:10:09.773Z,34.35
2023-01-23T20:12:36.426Z,33.63
2023-01-23T20:15:02.899Z,34.15
2023-01-23T20:17:29.561Z,34.30
2023-01-23T20:19:56.098Z,35.70
2023-01-23T20:22:22.667Z,33.15
2023-01-23T20:24:49.618Z,33.30
2023-01-23T20:27:16.122Z,31.33
2023-01-23T20:29:42.970Z,32.00
2023-01-23T20:32:09.993Z,35.65
2023-01-23T20:34:36.951Z,34.10
2023-01-23T20:37:03.391Z,33.47
2023-01-23T20:39:30.024Z,32.08
2023-01-23T20:41:56.535Z,31.92
2023-01-23T20:44:23.475Z,31.58
2023-01-23T20:46:49.979Z,32.17
2023-01-23T20:49:16.665Z,32.75
2023-01-23T20:51:43.566Z,31.08
2023-01-23T20:54:10.003Z,29.90
2023-01-23T20:56:36.534Z,31.77
2023-01-23T20:59:03.527Z,32.20
2023-01-23T21:01:30.463Z,32.10
2023-01-23T21:03:57.066Z,29.95
2023-01-23T21:06:23.560Z,29.58
2023-01-23T21:08:49.918Z,32.72
2023-01-23T21:11:16.973Z,34.63
2023-01-23T21:13:43.385Z,28.30
2023-01-23T21:16:10.189Z,29.40
2023-01-23T21:18:36.568Z,29.95
2023-01-23T21:21:03.591Z,29.25
2023-01-23T21:23:30.170Z,28.60
2023-01-23T21:25:56.680Z,30.08
2023-01-23T21:28:23.747Z,30.27
2023-01-23T21:30:50.269Z,30.60
2023-01-23T21:33:17.067Z,30.20
2023-01-23T21:35:43.533Z,29.48
2023-01-23T21:38:10.425Z,28.02
2023-01-23T21:40:36.956Z,29.02
2023-01-23T21:43:04.052Z,27.20
2023-01-23T21:45:31.101Z,29.25
2023-01-23T21:47:57.900Z,30.73
2023-01-23T21:50:24.982Z,31.92
2023-01-23T21:52:51.450Z,28.48
2023-01-23T21:55:17.870Z,29.10
2023-01-23T21:57:44.913Z,26.33
2023-01-23T22:00:13.728Z,28.58
2023-01-23T22:02:40.366Z,26.90
2023-01-23T22:05:07.615Z,28.38
2023-01-23T22:07:34.285Z,27.10
2023-01-23T22:10:00.988Z,27.75
2023-01-23T22:12:28.898Z,27.35
2023-01-23T22:14:55.450Z,25.75
2023-01-23T22:17:22.444Z,26.33
2023-01-23T22:19:48.785Z,27.58
2023-01-23T22:22:15.304Z,26.60
2023-01-23T22:24:42.189Z,27.02
2023-01-23T22:27:08.780Z,27.67
2023-01-23T22:29:36.069Z,26.83
2023-01-23T22:32:03.125Z,24.63
2023-01-23T22:34:30.266Z,26.00
2023-01-23T22:36:57.083Z,26.05
2023-01-23T22:39:23.521Z,25.42
2023-01-23T22:41:50.496Z,26.45
2023-01-23T22:44:16.934Z,29.88
2023-01-23T22:46:43.759Z,25.80
2023-01-23T22:49:10.189Z,25.50
2023-01-23T22:51:36.971Z,25.25
2023-01-23T22:54:03.423Z,24.33
2023-01-23T22:56:30.285Z,26.67
2023-01-23T22:58:57.148Z,29.20
2023-01-23T23:01:23.811Z,27.05
2023-01-23T23:03:50.999Z,24.60
2023-01-23T23:06:17.990Z,24.48
2023-01-23T23:08:47.371Z,24.05
2023-01-23T23:11:14.175Z,23.80
2023-01-23T23:13:40.747Z,23.83
2023-01-23T23:16:07.226Z,22.63
2023-01-23T23:18:33.985Z,24.30
2023-01-23T23:21:00.739Z,24.20
2023-01-23T23:23:27.243Z,22.63
2023-01-23T23:25:53.819Z,22.58
2023-01-23T23:28:20.400Z,24.58
2023-01-23T23:30:47.169Z,23.38
2023-01-23T23:33:13.980Z,25.30
2023-01-23T23:35:40.491Z,23.73
2023-01-23T23:38:07.159Z,24.00
2023-01-23T23:40:33.924Z,24.05
2023-01-23T23:43:00.296Z,21.73
2023-01-23T23:45:26.616Z,23.08
2023-01-23T23:47:52.947Z,23.10
2023-01-23T23:50:19.413Z,25.75
2023-01-23T23:52:46.581Z,26.50
2023-01-23T23:55:13.276Z,22.38
2023-01-23T23:57:40.206Z,24.48
